Time;durP1;ratioP1;P1;durP2;ratioP2;P2;SDS_P1;SDS_P2;PMS_P1;PMS_P2;Temp;Humidity;BMP_temperature;BMP_pressure;BME280_temperature;BME280_humidity;BME280_pressure;Samples;Min_cycle;Max_cycle;Signal;HPM_P1;HPM_P2
2022/11/03 00:02:06;;;;;;;9.20;5.33;;;10.50;99.90;;;;;;5115873;28;20184;-76
2022/11/03 00:04:31;;;;;;;7.63;4.80;;;10.50;99.90;;;;;;5116219;28;20198;-76
2022/11/03 00:06:57;;;;;;;10.93;5.17;;;10.50;99.90;;;;;;5116095;28;20537;-76
2022/11/03 00:09:25;;;;;;;6.40;4.97;;;10.50;99.90;;;;;;5114749;28;20546;-75
2022/11/03 00:11:51;;;;;;;9.10;4.77;;;10.50;99.90;;;;;;5116409;28;20176;-76
2022/11/03 00:14:17;;;;;;;7.73;4.60;;;10.50;99.90;;;;;;5116335;28;20506;-75
2022/11/03 00:16:43;;;;;;;9.63;5.10;;;10.40;99.90;;;;;;5116159;28;20623;-76
2022/11/03 00:19:10;;;;;;;7.40;5.20;;;10.30;99.90;;;;;;5115717;27;20537;-77
2022/11/03 00:21:37;;;;;;;9.63;4.67;;;10.30;99.90;;;;;;5116305;28;20383;-76
2022/11/03 00:24:03;;;;;;;6.17;4.60;;;10.20;99.90;;;;;;5116258;28;20771;-76
2022/11/03 00:26:34;;;;;;;6.67;4.67;;;10.10;99.90;;;;;;5115993;28;20896;-76
2022/11/03 00:29:08;;;;;;;7.70;4.73;;;10.20;99.90;;;;;;5106374;27;20396;-76
2022/11/03 00:31:35;;;;;;;8.33;5.40;;;10.20;99.90;;;;;;5099081;28;20419;-76
2022/11/03 00:34:02;;;;;;;5.93;5.43;;;10.30;99.90;;;;;;5115551;28;20463;-76
2022/11/03 00:36:34;;;;;;;7.10;5.20;;;10.30;99.90;;;;;;5115705;28;20918;-76
2022/11/03 00:39:00;;;;;;;10.40;5.13;;;10.30;99.90;;;;;;5115574;28;20413;-75
2022/11/03 00:41:25;;;;;;;8.50;5.30;;;10.40;99.90;;;;;;5115533;27;20770;-76
2022/11/03 00:43:52;;;;;;;7.43;5.50;;;10.40;99.90;;;;;;5115670;28;20471;-76
2022/11/03 00:46:19;;;;;;;10.23;5.87;;;10.40;99.90;;;;;;5115251;28;20177;-75
2022/11/03 00:48:45;;;;;;;7.83;6.07;;;10.40;99.90;;;;;;5115219;28;20404;-76
2022/11/03 00:51:14;;;;;;;5.60;5.07;;;10.40;99.90;;;;;;5115199;28;20421;-76
2022/11/03 00:53:49;;;;;;;9.60;6.53;;;10.40;99.90;;;;;;5115006;28;20192;-76
2022/11/03 00:56:23;;;;;;;10.17;5.43;;;10.30;99.90;;;;;;5089052;28;20484;-76
2022/11/03 00:58:50;;;;;;;11.13;6.40;;;10.30;99.90;;;;;;5093311;28;20405;-76
2022/11/03 01:01:22;;;;;;;7.03;5.37;;;10.20;99.90;;;;;;5095178;28;20511;-76
2022/11/03 01:06:52;;;;;;;10.47;6.10;;;9.90;99.90;;;;;;5095566;28;20885;-75
2022/11/03 01:09:39;;;;;;;7.87;6.13;;;9.90;99.90;;;;;;5095054;28;20427;-76
2022/11/03 01:12:16;;;;;;;12.43;6.20;;;9.90;99.90;;;;;;5094594;28;20905;-75
2022/11/03 01:14:47;;;;;;;9.83;5.83;;;9.80;99.90;;;;;;5094847;28;20445;-76
2022/11/03 01:17:14;;;;;;;10.60;7.20;;;9.80;99.90;;;;;;5092850;28;20955;-76
2022/11/03 01:19:40;;;;;;;8.00;6.07;;;9.80;99.90;;;;;;5094569;28;20504;-75
2022/11/03 01:22:06;;;;;;;7.67;5.50;;;9.70;99.90;;;;;;5094774;28;20506;-76
2022/11/03 01:24:34;;;;;;;7.23;5.37;;;9.70;99.90;;;;;;5094818;28;20438;-76
2022/11/03 01:26:59;;;;;;;7.43;6.13;;;9.80;99.90;;;;;;5094641;28;20793;-76
2022/11/03 01:29:25;;;;;;;9.50;6.03;;;9.80;99.90;;;;;;5092927;28;20428;-76
2022/11/03 01:31:50;;;;;;;6.90;6.20;;;9.80;99.90;;;;;;5098780;28;20264;-76
2022/11/03 01:34:18;;;;;;;7.80;5.37;;;9.80;99.90;;;;;;5114491;28;20229;-76
2022/11/03 01:36:44;;;;;;;9.90;6.33;;;9.70;99.90;;;;;;5114901;28;20267;-76
2022/11/03 01:39:15;;;;;;;9.03;5.33;;;9.70;99.90;;;;;;5114535;28;20402;-76
2022/11/03 01:41:42;;;;;;;9.73;6.43;;;9.70;99.90;;;;;;5114668;28;20393;-76
2022/11/03 01:44:07;;;;;;;11.67;6.30;;;9.60;99.90;;;;;;5114951;27;20416;-76
2022/11/03 01:46:36;;;;;;;10.80;7.00;;;9.50;99.90;;;;;;5114707;28;20496;-77
2022/11/03 01:49:10;;;;;;;9.17;6.20;;;9.50;99.90;;;;;;5115482;28;20172;-75
2022/11/03 01:51:38;;;;;;;7.57;6.70;;;9.50;99.90;;;;;;5114910;28;20409;-76
2022/11/03 01:54:07;;;;;;;10.30;6.47;;;9.50;99.90;;;;;;5114608;28;20445;-78
2022/11/03 01:56:37;;;;;;;8.60;6.60;;;9.50;99.90;;;;;;5115109;28;20478;-77
2022/11/03 01:59:03;;;;;;;12.87;6.53;;;9.50;99.90;;;;;;5114981;28;20395;-77
2022/11/03 02:01:30;;;;;;;10.43;6.63;;;9.50;99.90;;;;;;5113969;28;20496;-76
2022/11/03 02:04:01;;;;;;;8.43;5.60;;;9.50;99.90;;;;;;5113893;28;20434;-76
2022/11/03 02:06:28;;;;;;;8.03;5.93;;;9.50;99.90;;;;;;5114406;28;20437;-76
2022/11/03 02:09:05;;;;;;;9.10;6.00;;;9.40;99.90;;;;;;5113935;28;20442;-76
2022/11/03 02:14:16;;;;;;;8.80;6.37;;;9.40;99.90;;;;;;5114003;28;20491;-76
2022/11/03 02:17:06;;;;;;;6.83;6.13;;;9.40;99.90;;;;;;5113579;28;20896;-76
2022/11/03 02:19:49;;;;;;;10.73;6.60;;;9.40;99.90;;;;;;5113741;28;20188;-76
2022/11/03 02:22:45;;;;;;;10.50;7.77;;;9.40;99.90;;;;;;5113743;28;20725;-76
2022/11/03 02:25:35;;;;;;;8.77;6.87;;;9.40;99.90;;;;;;5099801;28;20438;-75
2022/11/03 02:28:02;;;;;;;12.43;7.90;;;9.30;99.90;;;;;;5093340;28;20404;-76
2022/11/03 02:30:37;;;;;;;9.57;6.30;;;9.30;99.90;;;;;;5093557;28;20992;-76
2022/11/03 02:33:14;;;;;;;8.17;6.50;;;9.20;99.90;;;;;;5107829;28;20418;-76
2022/11/03 02:35:47;;;;;;;9.40;6.73;;;9.10;99.90;;;;;;5114025;28;20389;-76
2022/11/03 02:38:16;;;;;;;9.30;6.73;;;9.00;99.90;;;;;;5114955;28;20824;-76
2022/11/03 02:40:46;;;;;;;9.43;6.97;;;9.00;99.90;;;;;;5114960;28;20439;-76
2022/11/03 02:43:14;;;;;;;8.60;6.13;;;9.00;99.90;;;;;;5114080;28;20389;-76
2022/11/03 02:45:41;;;;;;;7.83;6.27;;;8.90;99.90;;;;;;5114113;28;20413;-76
2022/11/03 02:48:07;;;;;;;7.90;5.40;;;8.90;99.90;;;;;;5113722;28;20496;-76
2022/11/03 02:50:33;;;;;;;13.17;7.00;;;8.90;99.90;;;;;;5114188;28;20493;-76
2022/11/03 02:53:00;;;;;;;7.70;5.80;;;9.00;99.90;;;;;;5114110;28;20406;-76
2022/11/03 02:55:39;;;;;;;9.33;6.30;;;9.10;99.90;;;;;;5113549;28;20822;-76
2022/11/03 02:58:25;;;;;;;10.40;5.77;;;9.10;99.90;;;;;;5113607;28;20441;-76
2022/11/03 03:00:57;;;;;;;6.40;5.30;;;9.00;99.90;;;;;;5113312;28;20486;-76
2022/11/03 03:03:28;;;;;;;6.23;5.43;;;9.00;99.90;;;;;;5112797;28;20500;-76
2022/11/03 03:05:59;;;;;;;10.57;5.97;;;9.10;99.90;;;;;;5113600;28;20385;-76
2022/11/03 03:08:27;;;;;;;11.97;6.97;;;9.00;99.90;;;;;;5113842;28;20420;-77
2022/11/03 03:10:54;;;;;;;9.83;7.37;;;9.00;99.90;;;;;;5113833;28;20962;-75
2022/11/03 03:13:21;;;;;;;7.30;5.40;;;8.70;99.90;;;;;;5113704;28;20405;-75
2022/11/03 03:16:04;;;;;;;10.23;5.80;;;8.70;99.90;;;;;;5115632;28;20399;-78
2022/11/03 03:19:07;;;;;;;6.10;5.37;;;8.70;99.90;;;;;;5113900;28;20405;-78
2022/11/03 03:21:39;;;;;;;6.00;5.40;;;8.70;99.90;;;;;;5117517;28;20802;-76
2022/11/03 03:24:13;;;;;;;7.43;5.53;;;8.70;99.90;;;;;;5118470;28;20479;-76
2022/11/03 03:26:48;;;;;;;8.93;6.50;;;8.70;99.90;;;;;;5118769;28;20422;-76
2022/11/03 03:29:24;;;;;;;9.30;6.40;;;8.70;99.90;;;;;;5119562;28;20435;-76
2022/11/03 03:31:55;;;;;;;8.23;5.80;;;8.70;99.90;;;;;;5116012;28;20472;-75
2022/11/03 03:34:23;;;;;;;6.27;4.43;;;8.80;99.90;;;;;;5116637;28;20858;-75
2022/11/03 03:36:50;;;;;;;6.57;5.40;;;8.80;99.90;;;;;;5115837;28;20495;-76
2022/11/03 03:39:18;;;;;;;7.57;4.73;;;8.90;99.90;;;;;;5115742;28;20467;-75
2022/11/03 03:41:46;;;;;;;9.37;5.00;;;8.90;99.90;;;;;;5115729;28;20412;-75
2022/11/03 03:44:14;;;;;;;7.70;5.43;;;8.90;99.90;;;;;;5115787;28;20398;-76
2022/11/03 03:46:48;;;;;;;10.30;5.40;;;9.00;99.90;;;;;;5116575;28;20403;-76
2022/11/03 03:49:14;;;;;;;7.97;5.87;;;9.00;99.90;;;;;;5089472;28;20882;-75
2022/11/03 03:51:40;;;;;;;9.30;5.57;;;9.00;99.90;;;;;;5095212;28;20443;-76
2022/11/03 03:54:06;;;;;;;7.93;5.00;;;9.00;99.90;;;;;;5097197;28;20485;-77
2022/11/03 03:56:38;;;;;;;5.93;5.27;;;9.00;99.90;;;;;;5099104;28;20406;-75
2022/11/03 03:59:03;;;;;;;6.63;5.30;;;9.10;99.90;;;;;;5097283;28;20259;-76
2022/11/03 04:01:29;;;;;;;10.20;4.90;;;9.00;99.90;;;;;;5097776;28;20466;-77
2022/11/03 04:03:54;;;;;;;11.10;5.70;;;9.00;99.90;;;;;;5096433;28;20176;-76
2022/11/03 04:06:20;;;;;;;6.87;6.00;;;9.00;99.90;;;;;;5096773;28;20256;-79
2022/11/03 04:08:45;;;;;;;6.07;5.10;;;9.00;99.90;;;;;;5096138;28;20183;-76
2022/11/03 04:22:16;;;;;;;6.30;4.70;;;8.70;99.90;;;;;;5095783;28;20377;-75
2022/11/03 04:24:49;;;;;;;6.10;5.07;;;8.70;99.90;;;;;;5095402;28;20469;-75
2022/11/03 04:27:34;;;;;;;7.43;5.40;;;8.80;99.90;;;;;;5094510;28;20382;-75
2022/11/03 04:30:05;;;;;;;10.03;4.83;;;8.80;99.90;;;;;;5094749;28;20424;-75
2022/11/03 04:32:30;;;;;;;9.03;5.43;;;8.90;99.90;;;;;;5102843;28;20413;-76
2022/11/03 04:34:58;;;;;;;7.10;4.60;;;8.90;99.90;;;;;;5115545;28;20526;-76
2022/11/03 04:37:27;;;;;;;7.73;4.90;;;8.90;99.90;;;;;;5114374;28;20179;-75
2022/11/03 04:39:58;;;;;;;11.07;5.40;;;8.90;99.90;;;;;;5115566;28;20421;-75
2022/11/03 04:42:23;;;;;;;9.70;5.10;;;8.90;99.90;;;;;;5115823;28;20452;-75
2022/11/03 04:44:49;;;;;;;6.70;5.03;;;8.90;99.90;;;;;;5115345;28;20413;-76
2022/11/03 04:47:16;;;;;;;7.60;5.03;;;8.90;99.90;;;;;;5113891;28;20172;-75
2022/11/03 04:49:43;;;;;;;8.07;5.00;;;9.00;99.90;;;;;;5115635;27;20514;-75
2022/11/03 04:52:15;;;;;;;9.43;5.60;;;9.00;99.90;;;;;;5115358;28;20434;-74
2022/11/03 04:54:41;;;;;;;11.17;6.10;;;9.00;99.90;;;;;;5115680;28;20992;-76
2022/11/03 04:57:13;;;;;;;11.53;7.87;;;9.00;99.90;;;;;;5115328;28;20397;-76
2022/11/03 04:59:39;;;;;;;23.23;20.50;;;8.90;99.90;;;;;;5115208;28;20617;-75
2022/11/03 05:02:11;;;;;;;27.10;23.47;;;8.90;99.90;;;;;;5113265;28;20405;-72
2022/11/03 05:04:37;;;;;;;24.50;22.10;;;8.90;99.90;;;;;;5115425;28;20390;-74
2022/11/03 05:07:22;;;;;;;13.93;12.63;;;8.90;99.90;;;;;;5115437;28;20417;-76
2022/11/03 05:09:48;;;;;;;10.30;8.87;;;8.90;99.90;;;;;;5114963;28;20194;-74
2022/11/03 05:12:14;;;;;;;8.20;6.97;;;8.80;99.90;;;;;;5114980;28;20776;-75
2022/11/03 05:14:40;;;;;;;6.70;6.00;;;8.80;99.90;;;;;;5114756;28;20492;-75
2022/11/03 05:17:24;;;;;;;10.47;9.37;;;8.90;99.90;;;;;;5114567;28;20409;-75
2022/11/03 05:20:02;;;;;;;15.43;13.83;;;8.90;99.90;;;;;;5129478;22;20601;-72
2022/11/03 05:22:32;;;;;;;11.27;10.17;;;8.90;99.90;;;;;;5074720;28;20748;-71
2022/11/03 05:25:09;;;;;;;12.50;9.27;;;8.90;99.90;;;;;;5074509;28;20719;-71
2022/11/03 05:27:35;;;;;;;11.93;7.07;;;9.00;99.90;;;;;;5074386;28;20888;-72
2022/11/03 05:30:03;;;;;;;10.93;6.90;;;9.00;99.90;;;;;;5074205;28;20422;-71
2022/11/03 05:32:32;;;;;;;9.90;6.83;;;9.00;99.90;;;;;;5072600;28;20429;-72
2022/11/03 05:34:57;;;;;;;8.37;6.13;;;9.00;99.90;;;;;;5074025;28;20458;-72
2022/11/03 05:37:26;;;;;;;8.50;6.93;;;8.90;99.90;;;;;;5055892;28;20422;-71
2022/11/03 05:39:54;;;;;;;9.80;7.70;;;8.90;99.90;;;;;;5074220;28;20238;-72
2022/11/03 05:42:36;;;;;;;7.00;6.30;;;8.90;99.90;;;;;;5073416;28;20422;-71
2022/11/03 05:45:27;;;;;;;8.30;6.40;;;8.90;99.90;;;;;;5074360;28;20852;-71
2022/11/03 05:47:54;;;;;;;13.43;6.03;;;8.90;99.90;;;;;;5065633;28;20430;-72
2022/11/03 05:50:28;;;;;;;8.87;6.67;;;8.80;99.90;;;;;;5055707;28;20984;-71
2022/11/03 05:53:02;;;;;;;13.90;6.20;;;8.70;99.90;;;;;;5073671;28;20421;-72
2022/11/03 05:55:34;;;;;;;8.27;7.50;;;8.70;99.90;;;;;;5073658;28;20516;-72
2022/11/03 05:58:10;;;;;;;7.50;6.70;;;8.70;99.90;;;;;;5073443;28;20434;-74
2022/11/03 06:00:40;;;;;;;6.63;5.60;;;8.70;99.90;;;;;;5073553;28;20431;-72
2022/11/03 06:03:06;;;;;;;8.23;6.27;;;8.80;99.90;;;;;;5073048;28;20409;-71
2022/11/03 06:05:33;;;;;;;10.93;6.33;;;8.80;99.90;;;;;;5055309;28;20411;-72
2022/11/03 06:08:20;;;;;;;8.43;6.27;;;8.80;99.90;;;;;;5073317;28;20442;-72
2022/11/03 06:10:52;;;;;;;9.93;6.60;;;8.70;99.90;;;;;;5073613;28;20429;-71
2022/11/03 06:13:23;;;;;;;7.90;5.90;;;8.70;99.90;;;;;;5072248;28;20418;-71
2022/11/03 06:15:56;;;;;;;7.57;6.67;;;8.50;99.90;;;;;;5061607;28;20470;-71
2022/11/03 06:18:25;;;;;;;8.60;6.30;;;8.60;99.90;;;;;;5072749;28;20439;-71
2022/11/03 06:20:55;;;;;;;9.17;5.67;;;8.60;99.90;;;;;;5070779;28;20535;-72
2022/11/03 06:23:22;;;;;;;8.70;7.00;;;8.50;99.90;;;;;;5073623;28;20410;-72
2022/11/03 06:25:48;;;;;;;8.67;5.90;;;8.50;99.90;;;;;;5073102;28;20920;-72
2022/11/03 06:28:19;;;;;;;8.03;5.77;;;8.50;99.90;;;;;;5073046;28;20407;-72
2022/11/03 06:30:45;;;;;;;7.77;6.13;;;8.50;99.90;;;;;;5073261;28;20473;-72
2022/11/03 06:33:26;;;;;;;7.47;5.90;;;8.50;99.90;;;;;;5072509;28;20970;-70
2022/11/03 06:35:59;;;;;;;7.97;6.47;;;8.50;99.90;;;;;;5073490;28;20498;-72
2022/11/03 06:38:28;;;;;;;12.97;8.37;;;8.50;99.90;;;;;;5073800;28;20436;-71
2022/11/03 06:40:54;;;;;;;9.90;6.93;;;8.50;99.90;;;;;;5073560;28;20518;-71
2022/11/03 06:43:27;;;;;;;8.23;6.90;;;8.60;99.90;;;;;;5073063;28;20908;-72
2022/11/03 06:45:57;;;;;;;10.97;7.20;;;8.70;99.90;;;;;;5073248;28;20411;-70
2022/11/03 06:48:28;;;;;;;8.73;7.83;;;8.80;99.90;;;;;;5072617;28;20757;-72
2022/11/03 06:50:55;;;;;;;9.93;7.53;;;8.90;99.90;;;;;;5072763;28;20431;-72
2022/11/03 06:53:25;;;;;;;9.17;6.90;;;9.00;99.90;;;;;;5072808;28;20408;-71
2022/11/03 06:55:51;;;;;;;7.03;6.37;;;9.10;99.90;;;;;;5075399;28;20773;-69
2022/11/03 06:58:30;;;;;;;15.57;10.50;;;9.10;99.90;;;;;;5076645;28;20415;-72
2022/11/03 07:01:00;;;;;;;9.93;7.43;;;9.00;99.90;;;;;;5059010;28;20445;-71
2022/11/03 07:03:36;;;;;;;17.57;10.47;;;9.00;99.90;;;;;;5076309;28;20948;-74
2022/11/03 07:06:17;;;;;;;13.70;10.87;;;9.00;99.90;;;;;;5076990;28;20387;-70
2022/11/03 07:08:45;;;;;;;12.53;10.27;;;9.10;99.90;;;;;;5077297;28;20416;-72
2022/11/03 07:11:22;;;;;;;10.67;7.97;;;9.20;99.90;;;;;;5076588;28;20504;-72
2022/11/03 07:13:50;;;;;;;8.70;7.77;;;9.20;99.90;;;;;;5076990;28;20470;-72
2022/11/03 07:16:32;;;;;;;9.50;7.93;;;9.30;99.90;;;;;;5076449;28;20472;-71
2022/11/03 07:19:10;;;;;;;9.10;7.30;;;9.40;99.90;;;;;;5075811;28;20386;-72
2022/11/03 07:21:39;;;;;;;8.60;6.90;;;9.50;99.90;;;;;;5076149;28;20770;-71
2022/11/03 07:24:17;;;;;;;8.07;6.37;;;9.60;99.90;;;;;;5076646;28;20414;-72
2022/11/03 07:26:43;;;;;;;10.07;7.90;;;9.70;99.90;;;;;;5076173;28;20474;-73
2022/11/03 07:29:20;;;;;;;10.63;7.93;;;9.80;99.90;;;;;;5076295;28;20953;-72
2022/11/03 07:31:47;;;;;;;10.17;6.53;;;9.90;99.90;;;;;;5075404;28;20162;-71
2022/11/03 07:34:17;;;;;;;14.23;6.80;;;10.00;99.90;;;;;;5057654;28;21027;-73
2022/11/03 07:36:44;;;;;;;7.93;6.40;;;10.10;99.90;;;;;;5076712;28;20420;-72
2022/11/03 07:39:14;;;;;;;8.90;7.20;;;10.20;99.90;;;;;;5076312;28;20415;-72
2022/11/03 07:41:41;;;;;;;8.50;6.33;;;10.30;99.90;;;;;;5075976;28;20417;-72
2022/11/03 07:44:15;;;;;;;12.10;7.63;;;10.40;99.90;;;;;;5076316;28;20415;-70
2022/11/03 07:46:42;;;;;;;14.87;8.70;;;10.50;99.90;;;;;;5076011;28;20391;-72
2022/11/03 07:49:28;;;;;;;9.47;7.10;;;10.70;99.90;;;;;;5075642;28;20465;-71
2022/11/03 07:51:56;;;;;;;10.70;7.70;;;10.80;99.90;;;;;;5076030;28;20399;-71
2022/11/03 07:54:24;;;;;;;11.37;7.17;;;10.90;99.90;;;;;;5075819;28;20483;-72
2022/11/03 07:57:21;;;;;;;13.27;7.37;;;11.00;99.90;;;;;;5075676;28;20407;-72
2022/11/03 07:59:50;;;;;;;11.00;7.03;;;11.10;99.90;;;;;;5063692;28;21011;-70
2022/11/03 08:02:31;;;;;;;7.63;6.93;;;11.20;99.90;;;;;;5075223;28;20842;-71
2022/11/03 08:04:57;;;;;;;12.63;7.53;;;11.20;99.90;;;;;;5075687;28;20484;-72
2022/11/03 08:07:23;;;;;;;13.90;8.30;;;11.40;99.90;;;;;;5075740;28;20827;-71
2022/11/03 08:09:49;;;;;;;12.77;8.90;;;11.50;99.90;;;;;;5075604;28;20441;-71
2022/11/03 08:12:14;;;;;;;8.60;7.60;;;11.60;99.90;;;;;;5075228;28;20202;-72
2022/11/03 08:14:40;;;;;;;10.83;8.30;;;11.50;99.90;;;;;;5075515;28;20507;-72
2022/11/03 08:17:06;;;;;;;10.20;8.33;;;11.60;99.90;;;;;;5075473;28;20166;-71
2022/11/03 08:19:32;;;;;;;12.83;9.17;;;11.70;99.90;;;;;;5075151;28;20178;-72
2022/11/03 08:21:57;;;;;;;9.73;7.37;;;11.80;99.90;;;;;;5075676;28;20456;-72
2022/11/03 08:24:23;;;;;;;10.90;7.50;;;11.90;99.90;;;;;;5057366;28;20181;-71
2022/11/03 08:26:48;;;;;;;11.80;8.70;;;12.00;99.90;;;;;;5075499;28;20178;-72
2022/11/03 08:29:18;;;;;;;14.27;8.63;;;12.10;99.90;;;;;;5075292;28;20290;-71
2022/11/03 08:31:44;;;;;;;13.43;8.27;;;12.10;99.90;;;;;;5074732;28;20420;-73
2022/11/03 08:34:10;;;;;;;9.87;7.23;;;12.10;99.90;;;;;;5074692;28;20572;-71
2022/11/03 08:36:36;;;;;;;10.60;7.37;;;12.20;99.90;;;;;;5075791;28;20168;-73
2022/11/03 08:39:02;;;;;;;8.30;7.17;;;12.40;99.90;;;;;;5075090;28;20404;-75
2022/11/03 08:41:27;;;;;;;10.17;7.37;;;12.60;99.90;;;;;;5074917;28;20424;-72
2022/11/03 08:43:53;;;;;;;11.37;8.03;;;12.60;99.90;;;;;;5075455;28;20414;-73
2022/11/03 08:46:18;;;;;;;9.27;7.60;;;12.70;99.90;;;;;;5074839;28;20179;-72
2022/11/03 08:48:45;;;;;;;9.70;7.20;;;12.80;99.90;;;;;;5074269;28;20666;-73
2022/11/03 08:51:12;;;;;;;12.27;8.00;;;12.80;99.90;;;;;;5074643;28;20193;-71
2022/11/03 08:53:38;;;;;;;11.37;8.20;;;12.90;99.90;;;;;;5074630;28;20840;-72
2022/11/03 08:56:04;;;;;;;9.40;7.60;;;13.10;99.90;;;;;;5074719;28;20412;-71
2022/11/03 08:58:30;;;;;;;9.80;8.10;;;13.00;99.90;;;;;;5074821;28;20415;-72
2022/11/03 09:00:56;;;;;;;12.63;8.60;;;13.00;99.90;;;;;;5074559;28;20514;-71
2022/11/03 09:03:22;;;;;;;10.20;7.83;;;13.20;99.90;;;;;;5073949;28;20180;-71
2022/11/03 09:05:47;;;;;;;10.60;8.17;;;13.20;99.90;;;;;;5067954;28;20177;-73
2022/11/03 09:08:13;;;;;;;11.00;7.53;;;13.30;99.90;;;;;;5068626;28;20271;-72
2022/11/03 09:10:39;;;;;;;11.17;8.30;;;13.30;99.90;;;;;;5074788;28;20183;-71
2022/11/03 09:13:04;;;;;;;10.30;7.10;;;13.40;99.90;;;;;;5074206;28;20172;-72
2022/11/03 09:15:30;;;;;;;8.17;6.73;;;13.60;99.90;;;;;;5074183;28;20276;-73
2022/11/03 09:17:56;;;;;;;7.73;6.90;;;13.60;99.90;;;;;;5073069;28;20170;-71
2022/11/03 09:20:22;;;;;;;8.80;6.00;;;13.70;99.90;;;;;;5074067;28;20443;-71
2022/11/03 09:22:47;;;;;;;6.23;5.63;;;13.80;99.90;;;;;;5074269;28;20555;-72
2022/11/03 09:25:13;;;;;;;8.80;6.03;;;14.10;99.90;;;;;;5074028;28;20219;-72
2022/11/03 09:27:38;;;;;;;9.57;6.50;;;14.10;99.90;;;;;;5073834;28;20178;-73
2022/11/03 09:30:05;;;;;;;7.20;5.67;;;14.30;99.90;;;;;;5074292;28;20193;-74
2022/11/03 09:32:30;;;;;;;8.13;5.73;;;14.50;99.90;;;;;;5073295;28;20176;-73
2022/11/03 09:34:56;;;;;;;7.67;3.57;;;14.70;99.90;;;;;;5073504;28;20971;-72
2022/11/03 09:37:22;;;;;;;4.20;3.70;;;14.40;99.90;;;;;;5074371;28;20169;-74
2022/11/03 09:39:48;;;;;;;7.20;3.90;;;14.00;99.90;;;;;;5073655;28;20195;-72
2022/11/03 09:42:15;;;;;;;4.27;3.30;;;14.00;99.90;;;;;;5073939;28;20174;-71
2022/11/03 09:44:41;;;;;;;4.73;3.30;;;14.10;99.90;;;;;;5073597;28;20419;-72
2022/11/03 09:47:18;;;;;;;6.20;3.60;;;13.90;99.90;;;;;;5073440;28;20502;-73
2022/11/03 09:49:44;;;;;;;4.90;3.13;;;14.20;99.90;;;;;;5073264;28;20774;-70
2022/11/03 09:52:14;;;;;;;7.00;3.40;;;14.50;99.90;;;;;;5073536;28;20419;-72
2022/11/03 09:54:40;;;;;;;4.17;3.40;;;14.50;99.90;;;;;;5073741;28;20240;-74
2022/11/03 09:57:11;;;;;;;4.93;3.37;;;14.60;99.90;;;;;;5073600;28;20407;-71
2022/11/03 09:59:38;;;;;;;3.97;2.90;;;14.90;99.90;;;;;;5073781;28;20196;-71
2022/11/03 10:02:20;;;;;;;2.57;2.33;;;15.10;99.90;;;;;;5073231;28;20469;-73
2022/11/03 10:04:46;;;;;;;6.27;3.00;;;15.40;99.90;;;;;;5073013;28;20416;-74
2022/11/03 10:07:12;;;;;;;4.50;2.87;;;15.50;99.90;;;;;;5073252;28;20402;-73
2022/11/03 10:09:43;;;;;;;5.80;2.60;;;15.60;99.90;;;;;;5073388;28;20197;-75
2022/11/03 10:12:09;;;;;;;4.67;3.30;;;15.70;99.90;;;;;;5073419;28;20176;-75
2022/11/03 10:14:35;;;;;;;6.93;3.10;;;15.60;99.90;;;;;;5073279;28;20868;-72
2022/11/03 10:17:00;;;;;;;5.93;2.77;;;15.50;99.90;;;;;;5072397;28;20411;-72
2022/11/03 10:19:26;;;;;;;5.10;2.70;;;15.70;99.90;;;;;;5072653;28;20169;-73
2022/11/03 10:21:52;;;;;;;3.50;2.40;;;15.70;99.90;;;;;;5073313;28;20159;-71
2022/11/03 10:24:17;;;;;;;3.83;2.60;;;15.60;99.90;;;;;;5073382;28;20214;-72
2022/11/03 10:26:48;;;;;;;5.07;3.13;;;15.70;99.90;;;;;;5073412;28;20185;-72
2022/11/03 10:29:20;;;;;;;6.17;3.57;;;15.70;99.90;;;;;;5073232;28;20745;-71
2022/11/03 10:31:50;;;;;;;3.90;2.83;;;15.40;99.90;;;;;;5072453;28;20413;-70
2022/11/03 10:34:36;;;;;;;5.57;3.03;;;15.50;99.90;;;;;;5052955;28;20444;-73
2022/11/03 10:37:21;;;;;;;3.80;2.60;;;15.80;99.90;;;;;;5052936;28;20420;-72
2022/11/03 10:39:49;;;;;;;8.13;3.70;;;16.00;99.90;;;;;;5053292;28;20421;-73
2022/11/03 10:42:21;;;;;;;8.80;3.73;;;15.80;99.90;;;;;;5053092;28;20407;-72
2022/11/03 10:44:48;;;;;;;9.07;3.50;;;15.40;99.90;;;;;;5053351;28;20534;-72
2022/11/03 10:47:59;;;;;;;5.40;2.50;;;15.30;99.90;;;;;;5052736;28;20558;-73
2022/11/03 10:50:26;;;;;;;4.50;3.10;;;15.60;99.90;;;;;;5016253;28;21020;-72
2022/11/03 10:52:53;;;;;;;5.23;3.10;;;15.70;99.90;;;;;;5052632;28;20412;-72
2022/11/03 10:55:20;;;;;;;5.80;2.57;;;15.60;99.90;;;;;;5052938;28;20459;-72
2022/11/03 10:57:46;;;;;;;5.00;2.80;;;15.30;99.90;;;;;;5052722;28;20798;-72
2022/11/03 11:00:15;;;;;;;4.07;3.00;;;15.30;99.90;;;;;;5052860;28;20427;-73
2022/11/03 11:02:45;;;;;;;9.20;2.90;;;15.50;99.90;;;;;;5042027;28;20431;-72
2022/11/03 11:05:22;;;;;;;5.73;2.50;;;16.00;99.90;;;;;;5072900;28;20377;-73
2022/11/03 11:07:52;;;;;;;5.83;3.37;;;16.10;99.90;;;;;;5073134;28;20755;-73
2022/11/03 11:10:29;;;;;;;7.20;3.00;;;15.80;99.90;;;;;;5072841;28;20423;-72
2022/11/03 11:13:22;;;;;;;3.93;2.20;;;16.20;99.90;;;;;;5073063;28;20486;-71
2022/11/03 11:15:51;;;;;;;4.20;2.30;;;16.40;99.90;;;;;;5073372;28;20393;-72
2022/11/03 11:18:26;;;;;;;6.70;2.50;;;16.50;99.90;;;;;;5072136;28;20443;-73
2022/11/03 11:20:52;;;;;;;5.00;2.90;;;16.00;99.90;;;;;;5096814;22;21067;-76
2022/11/03 11:23:27;;;;;;;6.07;2.67;;;15.80;99.90;;;;;;5073539;28;20468;-75
2022/11/03 11:26:08;;;;;;;5.97;2.20;;;15.50;99.90;;;;;;5074018;28;20384;-76
2022/11/03 11:28:34;;;;;;;5.50;3.20;;;15.40;99.90;;;;;;5073618;28;20392;-76
2022/11/03 11:31:00;;;;;;;4.17;2.40;;;15.50;99.90;;;;;;5073287;28;20419;-76
2022/11/03 11:33:31;;;;;;;3.70;2.70;;;15.60;99.90;;;;;;5086773;28;20461;-76
2022/11/03 11:35:57;;;;;;;3.10;2.40;;;15.40;99.90;;;;;;5075240;28;20926;-76
2022/11/03 11:38:55;;;;;;;4.03;2.60;;;15.60;99.90;;;;;;5093405;28;20408;-76
2022/11/03 11:41:59;;;;;;;3.33;2.50;;;15.50;99.90;;;;;;5095190;28;20190;-77
2022/11/03 11:44:46;;;;;;;5.87;2.80;;;15.40;99.90;;;;;;5096450;28;20810;-76
2022/11/03 11:47:40;;;;;;;3.70;2.83;;;15.50;99.90;;;;;;5097223;28;20405;-77
2022/11/03 11:50:21;;;;;;;2.90;2.50;;;15.90;99.90;;;;;;5091179;28;20433;-77
2022/11/03 11:53:23;;;;;;;2.77;2.47;;;16.20;99.90;;;;;;5097843;28;20405;-77
2022/11/03 11:55:55;;;;;;;6.57;2.77;;;16.30;99.90;;;;;;5035637;28;20482;-76
2022/11/03 11:58:41;;;;;;;3.77;2.60;;;16.20;99.90;;;;;;5072427;28;20512;-76
2022/11/03 12:01:22;;;;;;;3.83;2.70;;;15.90;99.90;;;;;;5074945;28;20456;-77
2022/11/03 12:03:49;;;;;;;4.30;2.70;;;16.00;99.90;;;;;;5094743;28;20411;-77
2022/11/03 12:06:15;;;;;;;6.03;3.00;;;16.20;99.90;;;;;;5096834;28;20846;-76
2022/11/03 12:08:41;;;;;;;6.10;3.30;;;16.00;99.90;;;;;;5098086;28;20434;-78
2022/11/03 12:11:10;;;;;;;5.93;3.50;;;16.00;99.90;;;;;;5098426;28;20185;-76
2022/11/03 12:13:43;;;;;;;6.70;3.70;;;15.70;99.90;;;;;;5095916;28;20406;-76
2022/11/03 12:16:26;;;;;;;3.93;3.43;;;15.60;99.90;;;;;;5099009;28;20435;-78
2022/11/03 12:18:52;;;;;;;6.17;4.23;;;15.50;99.90;;;;;;5098650;28;20391;-78
2022/11/03 12:21:44;;;;;;;5.13;3.40;;;15.40;99.90;;;;;;5102362;28;20450;-78
2022/11/03 12:24:32;;;;;;;6.90;4.40;;;15.50;99.90;;;;;;5092468;28;20437;-79
2022/11/03 12:27:02;;;;;;;7.33;4.20;;;15.40;99.90;;;;;;5081869;28;20403;-77
2022/11/03 12:29:28;;;;;;;8.03;4.50;;;15.20;99.90;;;;;;5084020;28;20405;-76
2022/11/03 12:31:54;;;;;;;7.27;3.60;;;15.00;99.90;;;;;;5078037;28;20458;-78
2022/11/03 12:34:20;;;;;;;5.63;3.20;;;15.10;99.90;;;;;;5096712;28;20191;-77
2022/11/03 12:36:46;;;;;;;6.03;4.10;;;15.10;99.90;;;;;;5099744;28;20416;-77
2022/11/03 12:39:12;;;;;;;10.00;4.50;;;15.00;99.90;;;;;;5098015;28;20494;-77
2022/11/03 12:41:37;;;;;;;6.87;4.80;;;15.10;99.90;;;;;;5099643;28;20197;-78
2022/11/03 12:44:03;;;;;;;4.40;3.97;;;15.10;99.90;;;;;;5098978;28;20201;-77
2022/11/03 12:46:29;;;;;;;4.90;4.20;;;15.20;99.90;;;;;;5099957;28;20218;-76
2022/11/03 12:48:54;;;;;;;6.80;4.70;;;15.20;99.90;;;;;;5094850;28;20175;-76
2022/11/03 12:51:22;;;;;;;6.33;4.30;;;15.20;99.90;;;;;;5077449;28;20199;-76
2022/11/03 12:53:48;;;;;;;6.37;3.93;;;15.10;99.90;;;;;;5094167;28;20196;-76
2022/11/03 12:56:15;;;;;;;7.67;4.10;;;15.10;99.90;;;;;;5080328;28;20422;-76
2022/11/03 12:58:41;;;;;;;5.50;4.33;;;15.10;99.90;;;;;;5058740;28;20451;-76
2022/11/03 13:01:07;;;;;;;6.87;4.20;;;15.10;99.90;;;;;;5055105;28;20431;-77
2022/11/03 13:03:34;;;;;;;4.20;3.80;;;15.00;99.90;;;;;;5085335;28;20277;-75
2022/11/03 13:06:03;;;;;;;6.63;4.33;;;14.90;99.90;;;;;;5095293;28;20482;-77
2022/11/03 13:08:29;;;;;;;5.93;3.87;;;15.00;99.90;;;;;;5098068;28;20765;-79
2022/11/03 13:10:55;;;;;;;6.87;5.13;;;15.10;99.90;;;;;;5096129;28;20442;-77
2022/11/03 13:13:21;;;;;;;5.90;4.93;;;15.40;99.90;;;;;;5098332;28;20765;-77
2022/11/03 13:15:47;;;;;;;11.10;5.10;;;15.60;99.90;;;;;;5098584;28;20285;-77
2022/11/03 13:18:12;;;;;;;6.43;5.13;;;15.80;99.90;;;;;;5095895;28;20178;-78
2022/11/03 13:20:38;;;;;;;6.83;4.90;;;15.80;99.90;;;;;;5101041;28;20205;-77
2022/11/03 13:23:04;;;;;;;4.97;4.17;;;15.90;99.90;;;;;;5077936;28;20173;-76